Airfield :
LOGIN :

Register | Disclaimer

   EN    FR    IT 

 










Legend :    VFR   Marginal VFR   IFR   Intensive IFR   Very Intensive IFR
Visi :
Ceiling :
>= 8 km
>= 3000ft
5 to 8 km
1000 to 3000 ft
1500m to 5 km
500 to 1000 ft
800 to 1500m
200 to 500 ft
< 800m
< 200 ft
Symbols :   Thunderstorms  Fog  Heavy snow  Heavy precipitations  Wind > 20 kt
SIGMETs :     Misc.  Thunderstorms  Icing  Turbulence  Mountain Waves  Volcanic Ashes







- Airport Elevation : 194 ft


EBCV - Chièvres

CURRENT METAR :
  • 190925Z AUTO 23010KT 9999 NCD 08/05 Q1021 BLU

EXPIRED METARs :
  • 190855Z AUTO 23009KT 9999 NCD 07/06 Q1021 BLU
  • 190825Z AUTO 23008KT 9000 NCD 06/05 Q1021 BLU
  • 190755Z AUTO 22007KT 8000 NCD 05/05 Q1021 BLU
  • 190725Z AUTO 21007KT 6000 NCD 04/04 Q1020 WHT
  • 190655Z AUTO 22007KT 5000 NCD 04/04 Q1020 WHT
  • 190625Z AUTO 22007KT 6000 NCD 04/04 Q1020 WHT

TAF TAF EBCV
Valid from the 19 at 07:00 until the 19 at 16:00 UTC


190541Z 1907/1916 24007KT 9999 FEW008
TEMPO 1907/1909 6000 SCT008
BECMG 1909/1911 24011KT SCT020 SCT030
BECMG 1911/1913 SCT030 BKN050 BY EBWM
No reported NOTAMs for that airfield.



MET'MAP, your aeronautical weather chart ! - Copyright ORBIFLY December 2007 - Disclaimer

ORBIFLY MET'MAP TEAM :

Programming & Development : Alexandra Zaïnal
Concept & Development : Baudouin d'Aumeries
Co-Development & Prog : Marc-Olivier Méhu
Technical & hardware support : Manuel Goepfert

Contact : metmap@orbifly.com




SOURCES & CREDITS :

   NOAA